sensor_id;sensor_type;location;lat;lon;timestamp;pressure;altitude;pressure_sealevel;temperature;humidity
46045;BME280;31781;54.094;13.428;2023-03-05T00:01:32;101389.91;;;2.76;55.20
46045;BME280;31781;54.094;13.428;2023-03-05T00:03:34;101382.69;;;2.77;55.65
46045;BME280;31781;54.094;13.428;2023-03-05T00:05:36;101379.00;;;2.78;55.70
46045;BME280;31781;54.094;13.428;2023-03-05T00:07:38;101371.66;;;2.80;56.27
46045;BME280;31781;54.094;13.428;2023-03-05T00:09:39;101370.63;;;2.81;56.72
46045;BME280;31781;54.094;13.428;2023-03-05T00:11:41;101366.13;;;2.81;56.82
46045;BME280;31781;54.094;13.428;2023-03-05T00:13:43;101362.31;;;2.84;56.97
46045;BME280;31781;54.094;13.428;2023-03-05T00:15:45;101356.78;;;2.85;56.74
46045;BME280;31781;54.094;13.428;2023-03-05T00:17:50;101353.97;;;2.87;57.05
46045;BME280;31781;54.094;13.428;2023-03-05T00:19:52;101342.22;;;2.88;57.63
46045;BME280;31781;54.094;13.428;2023-03-05T00:21:56;101345.59;;;2.90;57.35
46045;BME280;31781;54.094;13.428;2023-03-05T00:23:59;101340.09;;;2.91;57.93
46045;BME280;31781;54.094;13.428;2023-03-05T00:26:01;101335.53;;;2.92;58.16
46045;BME280;31781;54.094;13.428;2023-03-05T00:28:03;101331.88;;;2.93;58.23
46045;BME280;31781;54.094;13.428;2023-03-05T00:30:07;101331.72;;;2.94;57.58
46045;BME280;31781;54.094;13.428;2023-03-05T00:32:09;101326.19;;;2.96;58.24
46045;BME280;31781;54.094;13.428;2023-03-05T00:34:15;101323.50;;;2.96;57.71
46045;BME280;31781;54.094;13.428;2023-03-05T00:36:18;101318.00;;;2.98;57.85
46045;BME280;31781;54.094;13.428;2023-03-05T00:38:21;101316.00;;;3.00;57.98
46045;BME280;31781;54.094;13.428;2023-03-05T00:40:23;101310.63;;;3.00;58.17
46045;BME280;31781;54.094;13.428;2023-03-05T00:42:26;101309.63;;;3.01;58.55
46045;BME280;31781;54.094;13.428;2023-03-05T00:44:29;101306.09;;;3.00;58.79
46045;BME280;31781;54.094;13.428;2023-03-05T00:46:31;101299.03;;;2.99;58.60
46045;BME280;31781;54.094;13.428;2023-03-05T00:48:34;101296.34;;;2.99;58.46
46045;BME280;31781;54.094;13.428;2023-03-05T00:50:37;101296.34;;;2.99;58.75
46045;BME280;31781;54.094;13.428;2023-03-05T00:52:38;101300.72;;;3.00;58.59
46045;BME280;31781;54.094;13.428;2023-03-05T00:54:40;101293.69;;;2.99;58.64
46045;BME280;31781;54.094;13.428;2023-03-05T00:56:43;101286.44;;;3.00;59.57
46045;BME280;31781;54.094;13.428;2023-03-05T00:58:45;101288.28;;;2.99;59.39
46045;BME280;31781;54.094;13.428;2023-03-05T01:00:47;101282.06;;;2.99;59.14
46045;BME280;31781;54.094;13.428;2023-03-05T01:02:49;101281.22;;;2.98;59.24
46045;BME280;31781;54.094;13.428;2023-03-05T01:04:51;101274.00;;;2.99;59.66
46045;BME280;31781;54.094;13.428;2023-03-05T01:06:54;101273.16;;;2.98;60.05
46045;BME280;31781;54.094;13.428;2023-03-05T01:08:56;101268.75;;;2.97;59.83
46045;BME280;31781;54.094;13.428;2023-03-05T01:10:58;101269.63;;;2.98;59.71
46045;BME280;31781;54.094;13.428;2023-03-05T01:13:00;101268.75;;;2.97;60.58
46045;BME280;31781;54.094;13.428;2023-03-05T01:15:04;101265.09;;;2.98;60.55
46045;BME280;31781;54.094;13.428;2023-03-05T01:17:08;101257.16;;;2.97;60.82
46045;BME280;31781;54.094;13.428;2023-03-05T01:19:12;101260.69;;;2.97;60.42
46045;BME280;31781;54.094;13.428;2023-03-05T01:21:14;101252.63;;;2.97;61.06
46045;BME280;31781;54.094;13.428;2023-03-05T01:23:17;101245.44;;;2.98;60.92
46045;BME280;31781;54.094;13.428;2023-03-05T01:25:19;101249.94;;;2.97;60.78
46045;BME280;31781;54.094;13.428;2023-03-05T01:27:23;101239.19;;;2.97;61.17
46045;BME280;31781;54.094;13.428;2023-03-05T01:29:26;101241.88;;;2.97;61.88
46045;BME280;31781;54.094;13.428;2023-03-05T01:31:28;101238.34;;;2.97;61.63
46045;BME280;31781;54.094;13.428;2023-03-05T01:33:29;101233.81;;;2.97;62.35
46045;BME280;31781;54.094;13.428;2023-03-05T01:35:31;101237.50;;;2.96;61.74
46045;BME280;31781;54.094;13.428;2023-03-05T01:37:33;101240.19;;;2.96;62.61
46045;BME280;31781;54.094;13.428;2023-03-05T01:39:36;101231.97;;;2.98;62.40
46045;BME280;31781;54.094;13.428;2023-03-05T01:41:38;101226.75;;;2.96;62.45
46045;BME280;31781;54.094;13.428;2023-03-05T01:43:42;101225.75;;;2.97;61.92
46045;BME280;31781;54.094;13.428;2023-03-05T01:46:21;101224.78;;;2.98;62.09
46045;BME280;31781;54.094;13.428;2023-03-05T01:48:25;101225.75;;;2.97;62.27
46045;BME280;31781;54.094;13.428;2023-03-05T01:50:28;101223.91;;;2.98;62.11
46045;BME280;31781;54.094;13.428;2023-03-05T01:52:32;101224.91;;;2.97;62.32
46045;BME280;31781;54.094;13.428;2023-03-05T01:54:39;101215.00;;;2.97;62.49
46045;BME280;31781;54.094;13.428;2023-03-05T01:56:45;101210.47;;;2.98;62.39
46045;BME280;31781;54.094;13.428;2023-03-05T01:58:50;101209.78;;;2.96;61.82
46045;BME280;31781;54.094;13.428;2023-03-05T02:00:53;101212.31;;;2.97;62.01
46045;BME280;31781;54.094;13.428;2023-03-05T02:02:57;101206.09;;;2.97;62.74
46045;BME280;31781;54.094;13.428;2023-03-05T02:05:06;101216.84;;;2.97;63.62
46045;BME280;31781;54.094;13.428;2023-03-05T02:07:11;101206.94;;;2.97;63.27
46045;BME280;31781;54.094;13.428;2023-03-05T02:09:15;101207.94;;;2.96;63.36
46045;BME280;31781;54.094;13.428;2023-03-05T02:11:19;101204.44;;;2.96;62.75
46045;BME280;31781;54.094;13.428;2023-03-05T02:13:22;101211.63;;;2.95;63.27
46045;BME280;31781;54.094;13.428;2023-03-05T02:15:24;101199.19;;;2.94;62.59
46045;BME280;31781;54.094;13.428;2023-03-05T02:17:27;101199.19;;;2.94;63.07
46045;BME280;31781;54.094;13.428;2023-03-05T02:19:46;101198.19;;;2.95;62.40
46045;BME280;31781;54.094;13.428;2023-03-05T02:21:50;101195.66;;;2.93;62.57
46045;BME280;31781;54.094;13.428;2023-03-05T02:23:52;101189.41;;;2.93;62.80
46045;BME280;31781;54.094;13.428;2023-03-05T02:25:54;101187.59;;;2.93;61.98
46045;BME280;31781;54.094;13.428;2023-03-05T02:27:59;101186.72;;;2.93;62.31
46045;BME280;31781;54.094;13.428;2023-03-05T02:30:02;101191.97;;;2.94;62.42
46045;BME280;31781;54.094;13.428;2023-03-05T02:32:04;101183.06;;;2.94;62.16
46045;BME280;31781;54.094;13.428;2023-03-05T02:34:06;101184.91;;;2.93;61.64
46045;BME280;31781;54.094;13.428;2023-03-05T02:36:09;101179.66;;;2.92;62.49
46045;BME280;31781;54.094;13.428;2023-03-05T02:38:14;101179.53;;;2.93;61.94
46045;BME280;31781;54.094;13.428;2023-03-05T02:40:17;101178.66;;;2.93;62.35
46045;BME280;31781;54.094;13.428;2023-03-05T02:42:18;101179.66;;;2.92;62.24
46045;BME280;31781;54.094;13.428;2023-03-05T02:44:20;101173.47;;;2.91;61.89
46045;BME280;31781;54.094;13.428;2023-03-05T02:46:22;101169.91;;;2.91;62.33
46045;BME280;31781;54.094;13.428;2023-03-05T02:48:24;101165.53;;;2.90;62.18
46045;BME280;31781;54.094;13.428;2023-03-05T02:50:26;101164.69;;;2.89;61.93
46045;BME280;31781;54.094;13.428;2023-03-05T02:52:28;101165.53;;;2.90;61.43
46045;BME280;31781;54.094;13.428;2023-03-05T02:54:33;101168.34;;;2.88;61.99
46045;BME280;31781;54.094;13.428;2023-03-05T02:56:34;101172.91;;;2.88;62.01
46045;BME280;31781;54.094;13.428;2023-03-05T02:58:36;101168.53;;;2.87;62.02
46045;BME280;31781;54.094;13.428;2023-03-05T03:00:39;101173.91;;;2.87;61.78
46045;BME280;31781;54.094;13.428;2023-03-05T03:02:41;101165.13;;;2.85;61.90
46045;BME280;31781;54.094;13.428;2023-03-05T03:04:42;101163.47;;;2.84;61.26
46045;BME280;31781;54.094;13.428;2023-03-05T03:06:44;101161.75;;;2.83;61.92
46045;BME280;31781;54.094;13.428;2023-03-05T03:08:46;101168.97;;;2.82;61.80
46045;BME280;31781;54.094;13.428;2023-03-05T03:10:49;101168.28;;;2.80;61.22
46045;BME280;31781;54.094;13.428;2023-03-05T03:12:51;101161.22;;;2.79;61.21
46045;BME280;31781;54.094;13.428;2023-03-05T03:14:52;101167.44;;;2.80;61.70
46045;BME280;31781;54.094;13.428;2023-03-05T03:16:54;101164.75;;;2.80;61.65
46045;BME280;31781;54.094;13.428;2023-03-05T03:18:56;101168.41;;;2.79;61.75
46045;BME280;31781;54.094;13.428;2023-03-05T03:20:58;101168.41;;;2.79;61.42
46045;BME280;31781;54.094;13.428;2023-03-05T03:23:00;101167.56;;;2.78;61.39
46045;BME280;31781;54.094;13.428;2023-03-05T03:25:03;101161.34;;;2.78;61.61
46045;BME280;31781;54.094;13.428;2023-03-05T03:27:06;101165.72;;;2.79;61.13
46045;BME280;31781;54.094;13.428;2023-03-05T03:29:08;101164.03;;;2.78;61.03
46045;BME280;31781;54.094;13.428;2023-03-05T03:31:10;101161.34;;;2.78;60.67
46045;BME280;31781;54.094;13.428;2023-03-05T03:33:12;101161.34;;;2.78;60.01
46045;BME280;31781;54.094;13.428;2023-03-05T03:35:13;101161.50;;;2.76;59.99
46045;BME280;31781;54.094;13.428;2023-03-05T03:37:15;101153.44;;;2.76;59.23
46045;BME280;31781;54.094;13.428;2023-03-05T03:39:19;101154.31;;;2.77;58.79
46045;BME280;31781;54.094;13.428;2023-03-05T03:41:21;101152.44;;;2.77;58.54
46045;BME280;31781;54.094;13.428;2023-03-05T03:43:24;101154.31;;;2.77;58.94
46045;BME280;31781;54.094;13.428;2023-03-05T03:45:26;101151.63;;;2.77;57.99
46045;BME280;31781;54.094;13.428;2023-03-05T03:47:28;101142.69;;;2.76;58.09
46045;BME280;31781;54.094;13.428;2023-03-05T03:49:29;101141.69;;;2.77;57.33
46045;BME280;31781;54.094;13.428;2023-03-05T03:51:32;101135.50;;;2.77;56.66
46045;BME280;31781;54.094;13.428;2023-03-05T03:53:34;101129.28;;;2.76;55.67
46045;BME280;31781;54.094;13.428;2023-03-05T03:55:37;101128.41;;;2.76;55.39
46045;BME280;31781;54.094;13.428;2023-03-05T03:57:41;101128.41;;;2.76;55.78
46045;BME280;31781;54.094;13.428;2023-03-05T03:59:50;101131.97;;;2.76;56.25
46045;BME280;31781;54.094;13.428;2023-03-05T04:01:52;101134.66;;;2.76;54.89
46045;BME280;31781;54.094;13.428;2023-03-05T04:03:55;101123.03;;;2.76;54.68
46045;BME280;31781;54.094;13.428;2023-03-05T04:05:56;101120.34;;;2.76;54.84
46045;BME280;31781;54.094;13.428;2023-03-05T04:07:58;101126.72;;;2.75;54.91
46045;BME280;31781;54.094;13.428;2023-03-05T04:10:00;101124.88;;;2.75;55.25
46045;BME280;31781;54.094;13.428;2023-03-05T04:12:02;101124.88;;;2.75;55.21
46045;BME280;31781;54.094;13.428;2023-03-05T04:14:04;101125.72;;;2.76;55.10
46045;BME280;31781;54.094;13.428;2023-03-05T04:16:08;101126.72;;;2.75;55.56
46045;BME280;31781;54.094;13.428;2023-03-05T04:18:10;101118.97;;;2.72;55.83
46045;BME280;31781;54.094;13.428;2023-03-05T04:20:12;101121.34;;;2.75;56.46
46045;BME280;31781;54.094;13.428;2023-03-05T04:22:16;101117.81;;;2.74;57.25
46045;BME280;31781;54.094;13.428;2023-03-05T04:24:18;101117.81;;;2.74;57.73
46045;BME280;31781;54.094;13.428;2023-03-05T04:26:20;101114.28;;;2.74;56.77
46045;BME280;31781;54.094;13.428;2023-03-05T04:28:22;101116.97;;;2.74;57.03
46045;BME280;31781;54.094;13.428;2023-03-05T04:30:24;101109.75;;;2.74;57.43
46045;BME280;31781;54.094;13.428;2023-03-05T04:32:27;101110.75;;;2.73;57.55
46045;BME280;31781;54.094;13.428;2023-03-05T04:34:30;101107.06;;;2.74;57.94
46045;BME280;31781;54.094;13.428;2023-03-05T04:36:32;101110.47;;;2.76;57.53
46045;BME280;31781;54.094;13.428;2023-03-05T04:38:35;101103.38;;;2.75;58.38
46045;BME280;31781;54.094;13.428;2023-03-05T04:40:37;101112.28;;;2.76;58.35
46045;BME280;31781;54.094;13.428;2023-03-05T04:42:39;101109.59;;;2.76;58.58
46045;BME280;31781;54.094;13.428;2023-03-05T04:44:41;101110.28;;;2.78;58.27
46045;BME280;31781;54.094;13.428;2023-03-05T04:46:43;101108.63;;;2.77;59.08
46045;BME280;31781;54.094;13.428;2023-03-05T04:48:47;101111.16;;;2.78;59.93
46045;BME280;31781;54.094;13.428;2023-03-05T04:50:49;101112.00;;;2.79;59.96
46045;BME280;31781;54.094;13.428;2023-03-05T04:52:50;101117.22;;;2.80;60.57
46045;BME280;31781;54.094;13.428;2023-03-05T04:54:54;101118.22;;;2.79;61.35
46045;BME280;31781;54.094;13.428;2023-03-05T04:56:55;101114.53;;;2.80;62.86
46045;BME280;31781;54.094;13.428;2023-03-05T04:58:57;101116.50;;;2.78;62.77
46045;BME280;31781;54.094;13.428;2023-03-05T05:01:00;101109.59;;;2.76;62.87
46045;BME280;31781;54.094;13.428;2023-03-05T05:03:02;101099.31;;;2.71;63.06
46045;BME280;31781;54.094;13.428;2023-03-05T05:05:07;101099.75;;;2.67;62.99
46045;BME280;31781;54.094;13.428;2023-03-05T05:07:08;101100.22;;;2.62;63.10
46045;BME280;31781;54.094;13.428;2023-03-05T05:09:10;101082.00;;;2.56;63.31
46045;BME280;31781;54.094;13.428;2023-03-05T05:11:13;101083.16;;;2.54;63.13
46045;BME280;31781;54.094;13.428;2023-03-05T05:13:15;101088.66;;;2.52;63.51
46045;BME280;31781;54.094;13.428;2023-03-05T05:15:17;101086.28;;;2.49;63.39
46045;BME280;31781;54.094;13.428;2023-03-05T05:17:19;101086.56;;;2.46;63.58
46045;BME280;31781;54.094;13.428;2023-03-05T05:19:21;101085.03;;;2.43;63.19
46045;BME280;31781;54.094;13.428;2023-03-05T05:21:25;101088.72;;;2.42;63.67
46045;BME280;31781;54.094;13.428;2023-03-05T05:23:26;101084.50;;;2.40;63.01
46045;BME280;31781;54.094;13.428;2023-03-05T05:25:28;101085.47;;;2.39;63.69
46045;BME280;31781;54.094;13.428;2023-03-05T05:27:30;101075.03;;;2.36;63.85
46045;BME280;31781;54.094;13.428;2023-03-05T05:29:32;101081.41;;;2.35;63.87
46045;BME280;31781;54.094;13.428;2023-03-05T05:31:34;101085.06;;;2.34;63.22
46045;BME280;31781;54.094;13.428;2023-03-05T05:33:37;101086.06;;;2.33;63.86
46045;BME280;31781;54.094;13.428;2023-03-05T05:35:39;101076.31;;;2.32;63.67
46045;BME280;31781;54.094;13.428;2023-03-05T05:37:42;101087.19;;;2.30;63.29
46045;BME280;31781;54.094;13.428;2023-03-05T05:39:44;101087.19;;;2.30;63.53
46045;BME280;31781;54.094;13.428;2023-03-05T05:41:49;101090.88;;;2.29;63.28
46045;BME280;31781;54.094;13.428;2023-03-05T05:43:53;101085.50;;;2.29;62.91
46045;BME280;31781;54.094;13.428;2023-03-05T05:45:58;101083.84;;;2.28;63.20
46045;BME280;31781;54.094;13.428;2023-03-05T05:48:00;101087.38;;;2.29;63.25
46045;BME280;31781;54.094;13.428;2023-03-05T05:50:09;101092.75;;;2.29;63.13
46045;BME280;31781;54.094;13.428;2023-03-05T05:52:11;101089.03;;;2.30;62.83
46045;BME280;31781;54.094;13.428;2023-03-05T05:54:15;101090.88;;;2.29;63.03
46045;BME280;31781;54.094;13.428;2023-03-05T05:56:17;101090.06;;;2.29;62.42
46045;BME280;31781;54.094;13.428;2023-03-05T05:58:18;101085.50;;;2.29;62.66
46045;BME280;31781;54.094;13.428;2023-03-05T06:00:21;101084.53;;;2.30;62.19
46045;BME280;31781;54.094;13.428;2023-03-05T06:02:23;101083.66;;;2.30;62.38
46045;BME280;31781;54.094;13.428;2023-03-05T06:04:26;101090.72;;;2.31;62.22
46045;BME280;31781;54.094;13.428;2023-03-05T06:06:28;101087.19;;;2.30;61.80
46045;BME280;31781;54.094;13.428;2023-03-05T06:08:30;101082.00;;;2.29;61.47
46045;BME280;31781;54.094;13.428;2023-03-05T06:10:35;101086.66;;;2.27;61.50
46045;BME280;31781;54.094;13.428;2023-03-05T06:12:36;101092.19;;;2.25;61.30
46045;BME280;31781;54.094;13.428;2023-03-05T06:14:39;101086.09;;;2.23;61.67
46045;BME280;31781;54.094;13.428;2023-03-05T06:16:42;101085.25;;;2.23;61.41
46045;BME280;31781;54.094;13.428;2023-03-05T06:18:44;101082.72;;;2.21;61.18
46045;BME280;31781;54.094;13.428;2023-03-05T06:20:52;101089.94;;;2.21;61.31
46045;BME280;31781;54.094;13.428;2023-03-05T06:22:54;101088.38;;;2.18;61.39
46045;BME280;31781;54.094;13.428;2023-03-05T06:24:56;101095.44;;;2.19;61.50
46045;BME280;31781;54.094;13.428;2023-03-05T06:27:00;101086.69;;;2.17;61.45
46045;BME280;31781;54.094;13.428;2023-03-05T06:29:01;101089.38;;;2.17;61.48
46045;BME280;31781;54.094;13.428;2023-03-05T06:31:06;101088.53;;;2.17;60.93
46045;BME280;31781;54.094;13.428;2023-03-05T06:33:08;101089.38;;;2.17;61.77
46045;BME280;31781;54.094;13.428;2023-03-05T06:35:10;101088.53;;;2.17;61.27
46045;BME280;31781;54.094;13.428;2023-03-05T06:37:12;101090.38;;;2.16;61.18
46045;BME280;31781;54.094;13.428;2023-03-05T06:39:14;101093.34;;;2.13;61.43
46045;BME280;31781;54.094;13.428;2023-03-05T06:41:18;101094.88;;;2.16;62.25
46045;BME280;31781;54.094;13.428;2023-03-05T06:43:22;101087.00;;;2.14;61.50
46045;BME280;31781;54.094;13.428;2023-03-05T06:45:24;101090.50;;;2.15;61.89
46045;BME280;31781;54.094;13.428;2023-03-05T06:47:27;101100.41;;;2.14;62.22
46045;BME280;31781;54.094;13.428;2023-03-05T06:49:29;101095.19;;;2.13;61.60
46045;BME280;31781;54.094;13.428;2023-03-05T06:51:34;101098.56;;;2.15;61.58
46045;BME280;31781;54.094;13.428;2023-03-05T06:53:36;101099.56;;;2.14;61.82
46045;BME280;31781;54.094;13.428;2023-03-05T06:55:38;101102.09;;;2.15;61.85
46045;BME280;31781;54.094;13.428;2023-03-05T06:57:40;101099.41;;;2.15;61.39
46045;BME280;31781;54.094;13.428;2023-03-05T06:59:44;101105.50;;;2.17;61.63
46045;BME280;31781;54.094;13.428;2023-03-05T07:01:46;101107.16;;;2.18;62.16
46045;BME280;31781;54.094;13.428;2023-03-05T07:03:48;101105.44;;;2.27;61.91
46045;BME280;31781;54.094;13.428;2023-03-05T07:05:50;101106.16;;;2.29;61.42
46045;BME280;31781;54.094;13.428;2023-03-05T07:07:52;101112.22;;;2.31;61.72
46045;BME280;31781;54.094;13.428;2023-03-05T07:09:54;101109.94;;;2.36;61.73
46045;BME280;31781;54.094;13.428;2023-03-05T07:11:56;101106.34;;;2.45;61.35
46045;BME280;31781;54.094;13.428;2023-03-05T07:13:59;101113.69;;;2.53;61.17
46045;BME280;31781;54.094;13.428;2023-03-05T07:16:05;101109.25;;;2.61;61.43
46045;BME280;31781;54.094;13.428;2023-03-05T07:18:07;101108.34;;;2.70;60.33
46045;BME280;31781;54.094;13.428;2023-03-05T07:20:10;101110.16;;;2.79;60.31
46045;BME280;31781;54.094;13.428;2023-03-05T07:22:13;101110.94;;;2.89;60.95
46045;BME280;31781;54.094;13.428;2023-03-05T07:24:14;101109.03;;;3.00;60.06
46045;BME280;31781;54.094;13.428;2023-03-05T07:26:16;101108.13;;;3.09;59.79
46045;BME280;31781;54.094;13.428;2023-03-05T07:28:18;101111.59;;;3.19;60.33
46045;BME280;31781;54.094;13.428;2023-03-05T07:30:20;101108.97;;;3.27;58.91
46045;BME280;31781;54.094;13.428;2023-03-05T07:32:24;101120.38;;;3.38;59.02
46045;BME280;31781;54.094;13.428;2023-03-05T07:34:26;101118.75;;;3.46;59.86
46045;BME280;31781;54.094;13.428;2023-03-05T07:36:28;101109.69;;;3.47;59.62
46045;BME280;31781;54.094;13.428;2023-03-05T07:38:30;101109.38;;;3.50;58.57
46045;BME280;31781;54.094;13.428;2023-03-05T07:40:33;101105.75;;;3.59;58.67
46045;BME280;31781;54.094;13.428;2023-03-05T07:42:35;101113.00;;;3.58;59.27
46045;BME280;31781;54.094;13.428;2023-03-05T07:44:37;101106.44;;;3.61;59.91
46045;BME280;31781;54.094;13.428;2023-03-05T07:46:38;101115.06;;;3.64;59.09
46045;BME280;31781;54.094;13.428;2023-03-05T07:48:43;101104.28;;;3.64;58.61
46045;BME280;31781;54.094;13.428;2023-03-05T07:50:45;101109.13;;;3.61;58.77
46045;BME280;31781;54.094;13.428;2023-03-05T07:52:47;101111.59;;;3.54;57.50
46045;BME280;31781;54.094;13.428;2023-03-05T07:54:50;101108.53;;;3.49;58.07
46045;BME280;31781;54.094;13.428;2023-03-05T07:56:53;101101.75;;;3.45;58.63
46045;BME280;31781;54.094;13.428;2023-03-05T07:58:57;101104.91;;;3.40;58.54
46045;BME280;31781;54.094;13.428;2023-03-05T08:00:58;101095.44;;;3.36;58.56
46045;BME280;31781;54.094;13.428;2023-03-05T08:03:01;101096.78;;;3.32;58.84
46045;BME280;31781;54.094;13.428;2023-03-05T08:05:08;101096.94;;;3.31;58.21
46045;BME280;31781;54.094;13.428;2023-03-05T08:07:13;101094.38;;;3.29;59.10
46045;BME280;31781;54.094;13.428;2023-03-05T08:09:15;101099.06;;;3.27;58.07
46045;BME280;31781;54.094;13.428;2023-03-05T08:11:17;101086.78;;;3.25;58.19
46045;BME280;31781;54.094;13.428;2023-03-05T08:13:19;101086.78;;;3.25;58.49
46045;BME280;31781;54.094;13.428;2023-03-05T08:15:21;101093.00;;;3.25;58.20
46045;BME280;31781;54.094;13.428;2023-03-05T08:17:23;101100.25;;;3.25;57.34
46045;BME280;31781;54.094;13.428;2023-03-05T08:19:25;101094.16;;;3.23;57.70
46045;BME280;31781;54.094;13.428;2023-03-05T08:21:29;101099.38;;;3.24;57.70
46045;BME280;31781;54.094;13.428;2023-03-05T08:23:31;101095.13;;;3.22;57.07
46045;BME280;31781;54.094;13.428;2023-03-05T08:25:33;101099.22;;;3.26;57.21
46045;BME280;31781;54.094;13.428;2023-03-05T08:27:37;101096.69;;;3.24;56.70
46045;BME280;31781;54.094;13.428;2023-03-05T08:29:39;101098.38;;;3.25;56.42
46045;BME280;31781;54.094;13.428;2023-03-05T08:31:44;101093.53;;;3.29;55.78
46045;BME280;31781;54.094;13.428;2023-03-05T08:33:46;101095.00;;;3.41;55.83
46045;BME280;31781;54.094;13.428;2023-03-05T08:35:47;101090.09;;;3.54;55.17
46045;BME280;31781;54.094;13.428;2023-03-05T08:37:52;101094.91;;;3.68;55.71
46045;BME280;31781;54.094;13.428;2023-03-05T08:39:56;101095.31;;;3.81;54.98
46045;BME280;31781;54.094;13.428;2023-03-05T08:41:59;101092.22;;;3.94;53.04
46045;BME280;31781;54.094;13.428;2023-03-05T08:44:00;101097.72;;;4.10;53.57
46045;BME280;31781;54.094;13.428;2023-03-05T08:46:02;101099.00;;;4.24;52.27
46045;BME280;31781;54.094;13.428;2023-03-05T08:48:05;101091.31;;;4.37;51.26
46045;BME280;31781;54.094;13.428;2023-03-05T08:50:08;101086.34;;;4.50;49.12
46045;BME280;31781;54.094;13.428;2023-03-05T08:52:10;101081.81;;;4.59;46.60
46045;BME280;31781;54.094;13.428;2023-03-05T08:54:13;101074.78;;;4.74;47.10
46045;BME280;31781;54.094;13.428;2023-03-05T08:56:16;101075.34;;;4.85;46.38
46045;BME280;31781;54.094;13.428;2023-03-05T08:58:18;101066.78;;;4.98;46.32
46045;BME280;31781;54.094;13.428;2023-03-05T09:00:20;101078.09;;;5.10;44.09
46045;BME280;31781;54.094;13.428;2023-03-05T09:02:23;101076.59;;;5.23;43.83
46045;BME280;31781;54.094;13.428;2023-03-05T09:04:26;101073.59;;;5.34;43.42
46045;BME280;31781;54.094;13.428;2023-03-05T09:06:29;101071.75;;;5.43;43.00
46045;BME280;31781;54.094;13.428;2023-03-05T09:08:32;101067.50;;;5.49;44.67
46045;BME280;31781;54.094;13.428;2023-03-05T09:10:35;101068.88;;;5.53;44.19
46045;BME280;31781;54.094;13.428;2023-03-05T09:12:37;101072.22;;;5.71;44.94
46045;BME280;31781;54.094;13.428;2023-03-05T09:14:39;101080.69;;;5.76;45.80
46045;BME280;31781;54.094;13.428;2023-03-05T09:16:41;101075.94;;;5.70;44.19
46045;BME280;31781;54.094;13.428;2023-03-05T09:18:44;101076.28;;;5.67;44.09
46045;BME280;31781;54.094;13.428;2023-03-05T09:20:47;101080.34;;;5.63;43.64
46045;BME280;31781;54.094;13.428;2023-03-05T09:22:49;101077.47;;;5.64;40.61
46045;BME280;31781;54.094;13.428;2023-03-05T09:24:51;101072.91;;;5.73;41.27
46045;BME280;31781;54.094;13.428;2023-03-05T09:26:57;101068.34;;;5.81;42.87
46045;BME280;31781;54.094;13.428;2023-03-05T09:28:59;101063.97;;;5.88;41.46
46045;BME280;31781;54.094;13.428;2023-03-05T09:31:01;101066.50;;;5.98;41.61
46045;BME280;31781;54.094;13.428;2023-03-05T09:33:03;101063.25;;;6.11;41.69
46045;BME280;31781;54.094;13.428;2023-03-05T09:35:06;101061.88;;;6.23;41.90
46045;BME280;31781;54.094;13.428;2023-03-05T09:37:09;101059.47;;;6.36;42.66
46045;BME280;31781;54.094;13.428;2023-03-05T09:39:11;101062.28;;;6.51;43.48
46045;BME280;31781;54.094;13.428;2023-03-05T09:41:23;101060.25;;;6.61;44.74
46045;BME280;31781;54.094;13.428;2023-03-05T09:43:38;101054.72;;;6.77;43.68
46045;BME280;31781;54.094;13.428;2023-03-05T09:45:46;101049.59;;;6.90;43.08
46045;BME280;31781;54.094;13.428;2023-03-05T09:48:01;101051.91;;;7.01;42.26
46045;BME280;31781;54.094;13.428;2023-03-05T09:50:26;101051.50;;;7.12;42.73
46045;BME280;31781;54.094;13.428;2023-03-05T09:52:38;101054.44;;;7.25;41.99
46045;BME280;31781;54.094;13.428;2023-03-05T09:54:43;101054.88;;;7.37;41.51
46045;BME280;31781;54.094;13.428;2023-03-05T09:56:50;101054.59;;;7.47;39.40
46045;BME280;31781;54.094;13.428;2023-03-05T09:58:59;101057.38;;;7.61;42.65
46045;BME280;31781;54.094;13.428;2023-03-05T10:01:08;101048.63;;;7.74;42.98
46045;BME280;31781;54.094;13.428;2023-03-05T10:03:15;101047.34;;;7.84;41.89
46045;BME280;31781;54.094;13.428;2023-03-05T10:05:24;101053.63;;;8.00;41.63
46045;BME280;31781;54.094;13.428;2023-03-05T10:07:30;101043.81;;;8.13;41.22
46045;BME280;31781;54.094;13.428;2023-03-05T10:09:42;101042.50;;;8.09;41.33
46045;BME280;31781;54.094;13.428;2023-03-05T10:11:51;101042.97;;;7.98;41.03
46045;BME280;31781;54.094;13.428;2023-03-05T10:13:54;101049.69;;;7.88;40.06
46045;BME280;31781;54.094;13.428;2023-03-05T10:16:05;101052.50;;;7.79;42.69
46045;BME280;31781;54.094;13.428;2023-03-05T10:18:22;101049.88;;;7.86;41.26
46045;BME280;31781;54.094;13.428;2023-03-05T10:20:40;101046.13;;;7.87;44.10
46045;BME280;31781;54.094;13.428;2023-03-05T10:23:02;101044.38;;;7.79;44.52
46045;BME280;31781;54.094;13.428;2023-03-05T10:25:17;101050.63;;;7.95;44.48
46045;BME280;31781;54.094;13.428;2023-03-05T10:27:32;101048.69;;;8.03;42.91
46045;BME280;31781;54.094;13.428;2023-03-05T10:29:55;101049.59;;;7.96;43.76
46045;BME280;31781;54.094;13.428;2023-03-05T10:32:11;101048.00;;;7.87;40.85
46045;BME280;31781;54.094;13.428;2023-03-05T10:34:34;101049.09;;;7.77;41.16
46045;BME280;31781;54.094;13.428;2023-03-05T10:36:52;101055.63;;;7.68;43.32
46045;BME280;31781;54.094;13.428;2023-03-05T10:41:32;101044.41;;;7.34;43.19
46045;BME280;31781;54.094;13.428;2023-03-05T10:43:42;101049.03;;;7.25;43.32
46045;BME280;31781;54.094;13.428;2023-03-05T10:45:49;101040.13;;;7.17;43.61
46045;BME280;31781;54.094;13.428;2023-03-05T10:47:56;101038.34;;;7.09;43.39
46045;BME280;31781;54.094;13.428;2023-03-05T10:50:00;101031.28;;;7.23;43.68